sensor_id;sensor_type;location;lat;lon;timestamp;P1;durP1;ratioP1;P2;durP2;ratioP2
1380;SDS011;684;48.342;10.096;2024-01-07T00:02:00;15.57;;;10.70;;
1380;SDS011;684;48.342;10.096;2024-01-07T00:04:28;13.03;;;9.47;;
1380;SDS011;684;48.342;10.096;2024-01-07T00:06:54;15.23;;;9.77;;
1380;SDS011;684;48.342;10.096;2024-01-07T00:09:21;17.80;;;10.47;;
1380;SDS011;684;48.342;10.096;2024-01-07T00:11:48;16.80;;;10.80;;
1380;SDS011;684;48.342;10.096;2024-01-07T00:14:15;15.43;;;10.60;;
1380;SDS011;684;48.342;10.096;2024-01-07T00:16:42;14.27;;;9.43;;
1380;SDS011;684;48.342;10.096;2024-01-07T00:19:09;14.93;;;10.00;;
1380;SDS011;684;48.342;10.096;2024-01-07T00:21:37;14.80;;;9.70;;
1380;SDS011;684;48.342;10.096;2024-01-07T00:24:04;17.70;;;10.10;;
1380;SDS011;684;48.342;10.096;2024-01-07T00:26:31;15.67;;;8.90;;
1380;SDS011;684;48.342;10.096;2024-01-07T00:28:57;14.43;;;9.27;;
1380;SDS011;684;48.342;10.096;2024-01-07T00:31:24;20.30;;;10.20;;
1380;SDS011;684;48.342;10.096;2024-01-07T00:33:51;14.50;;;8.90;;
1380;SDS011;684;48.342;10.096;2024-01-07T00:36:17;13.27;;;9.30;;
1380;SDS011;684;48.342;10.096;2024-01-07T00:38:45;14.60;;;10.00;;
1380;SDS011;684;48.342;10.096;2024-01-07T00:41:12;14.17;;;9.67;;
1380;SDS011;684;48.342;10.096;2024-01-07T00:43:39;13.40;;;8.17;;
1380;SDS011;684;48.342;10.096;2024-01-07T00:46:06;12.83;;;7.60;;
1380;SDS011;684;48.342;10.096;2024-01-07T00:48:33;13.10;;;8.40;;
1380;SDS011;684;48.342;10.096;2024-01-07T00:51:00;12.17;;;7.03;;
1380;SDS011;684;48.342;10.096;2024-01-07T00:53:26;13.93;;;8.10;;
1380;SDS011;684;48.342;10.096;2024-01-07T00:55:54;13.33;;;8.83;;
1380;SDS011;684;48.342;10.096;2024-01-07T00:58:21;13.93;;;7.33;;
1380;SDS011;684;48.342;10.096;2024-01-07T01:00:48;10.67;;;6.93;;
1380;SDS011;684;48.342;10.096;2024-01-07T01:03:14;13.00;;;8.70;;
1380;SDS011;684;48.342;10.096;2024-01-07T01:05:41;12.37;;;7.80;;
1380;SDS011;684;48.342;10.096;2024-01-07T01:08:08;11.47;;;7.70;;
1380;SDS011;684;48.342;10.096;2024-01-07T01:10:35;12.63;;;8.47;;
1380;SDS011;684;48.342;10.096;2024-01-07T01:13:03;13.43;;;8.07;;
1380;SDS011;684;48.342;10.096;2024-01-07T01:15:30;13.07;;;7.33;;
1380;SDS011;684;48.342;10.096;2024-01-07T01:17:56;13.20;;;8.03;;
1380;SDS011;684;48.342;10.096;2024-01-07T01:20:23;10.50;;;7.00;;
1380;SDS011;684;48.342;10.096;2024-01-07T01:22:50;12.10;;;6.90;;
1380;SDS011;684;48.342;10.096;2024-01-07T01:25:16;11.53;;;7.43;;
1380;SDS011;684;48.342;10.096;2024-01-07T01:27:43;11.57;;;7.00;;
1380;SDS011;684;48.342;10.096;2024-01-07T01:30:12;10.23;;;7.40;;
1380;SDS011;684;48.342;10.096;2024-01-07T01:32:39;12.10;;;7.17;;
1380;SDS011;684;48.342;10.096;2024-01-07T01:35:06;11.30;;;8.07;;
1380;SDS011;684;48.342;10.096;2024-01-07T01:37:33;15.20;;;8.40;;
1380;SDS011;684;48.342;10.096;2024-01-07T01:40:00;13.73;;;8.87;;
1380;SDS011;684;48.342;10.096;2024-01-07T01:42:27;13.73;;;8.77;;
1380;SDS011;684;48.342;10.096;2024-01-07T01:44:53;16.23;;;10.20;;
1380;SDS011;684;48.342;10.096;2024-01-07T01:47:25;16.40;;;10.50;;
1380;SDS011;684;48.342;10.096;2024-01-07T01:49:52;16.23;;;9.80;;
1380;SDS011;684;48.342;10.096;2024-01-07T01:52:19;14.70;;;9.20;;
1380;SDS011;684;48.342;10.096;2024-01-07T01:54:46;16.97;;;10.30;;
1380;SDS011;684;48.342;10.096;2024-01-07T01:57:15;17.00;;;10.50;;
1380;SDS011;684;48.342;10.096;2024-01-07T01:59:45;17.83;;;11.10;;
1380;SDS011;684;48.342;10.096;2024-01-07T02:02:13;16.10;;;9.60;;
1380;SDS011;684;48.342;10.096;2024-01-07T02:04:41;21.40;;;11.27;;
1380;SDS011;684;48.342;10.096;2024-01-07T02:07:08;14.87;;;10.27;;
1380;SDS011;684;48.342;10.096;2024-01-07T02:09:35;17.70;;;10.83;;
1380;SDS011;684;48.342;10.096;2024-01-07T02:12:02;15.57;;;10.33;;
1380;SDS011;684;48.342;10.096;2024-01-07T02:14:30;18.40;;;12.13;;
1380;SDS011;684;48.342;10.096;2024-01-07T02:16:57;16.93;;;10.50;;
1380;SDS011;684;48.342;10.096;2024-01-07T02:19:23;16.63;;;11.30;;
1380;SDS011;684;48.342;10.096;2024-01-07T02:21:52;21.13;;;11.27;;
1380;SDS011;684;48.342;10.096;2024-01-07T02:24:21;20.00;;;11.00;;
1380;SDS011;684;48.342;10.096;2024-01-07T02:26:48;16.03;;;11.07;;
1380;SDS011;684;48.342;10.096;2024-01-07T02:29:14;17.70;;;10.53;;
1380;SDS011;684;48.342;10.096;2024-01-07T02:31:41;16.47;;;10.53;;
1380;SDS011;684;48.342;10.096;2024-01-07T02:34:09;15.90;;;9.87;;
1380;SDS011;684;48.342;10.096;2024-01-07T02:36:36;15.13;;;10.87;;
1380;SDS011;684;48.342;10.096;2024-01-07T02:39:02;17.07;;;10.50;;
1380;SDS011;684;48.342;10.096;2024-01-07T02:41:31;17.83;;;9.80;;
1380;SDS011;684;48.342;10.096;2024-01-07T02:43:57;17.30;;;10.30;;
1380;SDS011;684;48.342;10.096;2024-01-07T02:46:24;17.53;;;10.17;;
1380;SDS011;684;48.342;10.096;2024-01-07T02:48:51;19.53;;;9.73;;
1380;SDS011;684;48.342;10.096;2024-01-07T02:51:17;16.17;;;10.07;;
1380;SDS011;684;48.342;10.096;2024-01-07T02:53:44;17.03;;;10.40;;
1380;SDS011;684;48.342;10.096;2024-01-07T02:56:11;19.00;;;10.93;;
1380;SDS011;684;48.342;10.096;2024-01-07T02:58:39;19.63;;;11.20;;
1380;SDS011;684;48.342;10.096;2024-01-07T03:01:08;14.27;;;10.00;;
1380;SDS011;684;48.342;10.096;2024-01-07T03:03:35;15.00;;;10.60;;
1380;SDS011;684;48.342;10.096;2024-01-07T03:06:02;15.47;;;10.03;;
1380;SDS011;684;48.342;10.096;2024-01-07T03:08:28;15.97;;;10.10;;
1380;SDS011;684;48.342;10.096;2024-01-07T03:10:55;16.33;;;10.50;;
1380;SDS011;684;48.342;10.096;2024-01-07T03:13:22;15.63;;;10.63;;
1380;SDS011;684;48.342;10.096;2024-01-07T03:15:50;17.40;;;10.10;;
1380;SDS011;684;48.342;10.096;2024-01-07T03:18:17;22.67;;;11.50;;
1380;SDS011;684;48.342;10.096;2024-01-07T03:20:43;16.73;;;11.37;;
1380;SDS011;684;48.342;10.096;2024-01-07T03:23:10;17.63;;;11.93;;
1380;SDS011;684;48.342;10.096;2024-01-07T03:25:37;16.57;;;10.83;;
1380;SDS011;684;48.342;10.096;2024-01-07T03:28:03;17.27;;;10.70;;
1380;SDS011;684;48.342;10.096;2024-01-07T03:30:30;14.60;;;9.20;;
1380;SDS011;684;48.342;10.096;2024-01-07T03:32:58;16.30;;;10.40;;
1380;SDS011;684;48.342;10.096;2024-01-07T03:35:25;17.50;;;10.40;;
1380;SDS011;684;48.342;10.096;2024-01-07T03:37:52;16.43;;;10.90;;
1380;SDS011;684;48.342;10.096;2024-01-07T03:40:18;15.67;;;9.87;;
1380;SDS011;684;48.342;10.096;2024-01-07T03:42:45;15.80;;;10.37;;
1380;SDS011;684;48.342;10.096;2024-01-07T03:45:12;17.73;;;10.30;;
1380;SDS011;684;48.342;10.096;2024-01-07T03:47:39;15.60;;;10.80;;
1380;SDS011;684;48.342;10.096;2024-01-07T03:50:07;14.10;;;9.77;;
1380;SDS011;684;48.342;10.096;2024-01-07T03:52:34;16.27;;;10.83;;
1380;SDS011;684;48.342;10.096;2024-01-07T03:55:01;13.67;;;9.10;;
1380;SDS011;684;48.342;10.096;2024-01-07T03:57:27;17.30;;;10.87;;
1380;SDS011;684;48.342;10.096;2024-01-07T03:59:54;15.90;;;9.97;;
1380;SDS011;684;48.342;10.096;2024-01-07T04:02:21;16.25;;;11.35;;
1380;SDS011;684;48.342;10.096;2024-01-07T04:04:47;15.23;;;11.30;;
1380;SDS011;684;48.342;10.096;2024-01-07T04:07:15;14.63;;;10.60;;
1380;SDS011;684;48.342;10.096;2024-01-07T04:09:42;15.40;;;10.57;;
1380;SDS011;684;48.342;10.096;2024-01-07T04:12:09;16.70;;;11.47;;
1380;SDS011;684;48.342;10.096;2024-01-07T04:14:36;17.47;;;11.20;;
1380;SDS011;684;48.342;10.096;2024-01-07T04:17:03;17.07;;;10.60;;
1380;SDS011;684;48.342;10.096;2024-01-07T04:19:30;15.90;;;11.17;;
1380;SDS011;684;48.342;10.096;2024-01-07T04:21:56;18.80;;;11.70;;
1380;SDS011;684;48.342;10.096;2024-01-07T04:24:24;18.27;;;11.27;;
1380;SDS011;684;48.342;10.096;2024-01-07T04:26:51;15.90;;;12.10;;
1380;SDS011;684;48.342;10.096;2024-01-07T04:29:18;17.40;;;11.93;;
1380;SDS011;684;48.342;10.096;2024-01-07T04:31:45;17.13;;;10.97;;
1380;SDS011;684;48.342;10.096;2024-01-07T04:34:12;17.10;;;12.20;;
1380;SDS011;684;48.342;10.096;2024-01-07T04:36:39;15.67;;;10.77;;
1380;SDS011;684;48.342;10.096;2024-01-07T04:39:05;16.37;;;10.80;;
1380;SDS011;684;48.342;10.096;2024-01-07T04:41:34;14.90;;;10.30;;
1380;SDS011;684;48.342;10.096;2024-01-07T04:44:00;17.63;;;11.47;;
1380;SDS011;684;48.342;10.096;2024-01-07T04:46:28;16.67;;;11.37;;
1380;SDS011;684;48.342;10.096;2024-01-07T04:48:54;15.80;;;11.63;;
1380;SDS011;684;48.342;10.096;2024-01-07T04:51:21;16.20;;;11.30;;
1380;SDS011;684;48.342;10.096;2024-01-07T04:53:48;18.50;;;11.40;;
1380;SDS011;684;48.342;10.096;2024-01-07T04:56:14;18.63;;;11.83;;
1380;SDS011;684;48.342;10.096;2024-01-07T04:58:43;20.13;;;11.87;;
1380;SDS011;684;48.342;10.096;2024-01-07T05:01:09;15.97;;;10.50;;
1380;SDS011;684;48.342;10.096;2024-01-07T05:03:36;17.23;;;10.87;;
1380;SDS011;684;48.342;10.096;2024-01-07T05:06:03;17.90;;;11.60;;
1380;SDS011;684;48.342;10.096;2024-01-07T05:08:30;16.30;;;11.80;;
1380;SDS011;684;48.342;10.096;2024-01-07T05:10:56;15.27;;;10.40;;
1380;SDS011;684;48.342;10.096;2024-01-07T05:13:23;16.13;;;11.60;;
1380;SDS011;684;48.342;10.096;2024-01-07T05:15:51;18.10;;;12.30;;
1380;SDS011;684;48.342;10.096;2024-01-07T05:18:20;17.13;;;11.87;;
1380;SDS011;684;48.342;10.096;2024-01-07T05:20:46;18.40;;;11.40;;
1380;SDS011;684;48.342;10.096;2024-01-07T05:23:13;17.07;;;11.43;;
1380;SDS011;684;48.342;10.096;2024-01-07T05:25:41;19.30;;;11.30;;
1380;SDS011;684;48.342;10.096;2024-01-07T05:28:08;18.83;;;11.97;;
1380;SDS011;684;48.342;10.096;2024-01-07T05:30:35;17.70;;;12.37;;
1380;SDS011;684;48.342;10.096;2024-01-07T05:33:03;18.27;;;12.40;;
1380;SDS011;684;48.342;10.096;2024-01-07T05:35:30;17.50;;;12.13;;
1380;SDS011;684;48.342;10.096;2024-01-07T05:37:57;17.10;;;12.00;;
1380;SDS011;684;48.342;10.096;2024-01-07T05:40:24;17.60;;;12.50;;
1380;SDS011;684;48.342;10.096;2024-01-07T05:42:50;17.30;;;12.10;;
1380;SDS011;684;48.342;10.096;2024-01-07T05:45:17;19.40;;;13.13;;
1380;SDS011;684;48.342;10.096;2024-01-07T05:47:45;16.40;;;12.03;;
1380;SDS011;684;48.342;10.096;2024-01-07T05:50:13;20.43;;;13.63;;
1380;SDS011;684;48.342;10.096;2024-01-07T05:52:41;18.93;;;13.00;;
1380;SDS011;684;48.342;10.096;2024-01-07T05:55:09;18.17;;;12.70;;
1380;SDS011;684;48.342;10.096;2024-01-07T05:57:36;18.70;;;12.70;;
1380;SDS011;684;48.342;10.096;2024-01-07T06:00:03;22.03;;;12.37;;
1380;SDS011;684;48.342;10.096;2024-01-07T06:02:30;18.53;;;12.30;;
1380;SDS011;684;48.342;10.096;2024-01-07T06:04:57;19.30;;;12.73;;
1380;SDS011;684;48.342;10.096;2024-01-07T06:07:25;18.30;;;12.77;;
1380;SDS011;684;48.342;10.096;2024-01-07T06:09:52;21.17;;;13.87;;
1380;SDS011;684;48.342;10.096;2024-01-07T06:12:18;21.93;;;13.40;;
1380;SDS011;684;48.342;10.096;2024-01-07T06:14:45;21.10;;;13.43;;
1380;SDS011;684;48.342;10.096;2024-01-07T06:17:12;19.43;;;14.40;;
1380;SDS011;684;48.342;10.096;2024-01-07T06:19:38;24.07;;;14.40;;
1380;SDS011;684;48.342;10.096;2024-01-07T06:22:05;19.23;;;14.37;;
1380;SDS011;684;48.342;10.096;2024-01-07T06:24:33;25.90;;;15.93;;
1380;SDS011;684;48.342;10.096;2024-01-07T06:27:00;22.83;;;14.00;;
1380;SDS011;684;48.342;10.096;2024-01-07T06:29:28;18.27;;;12.83;;
1380;SDS011;684;48.342;10.096;2024-01-07T06:31:55;23.37;;;16.30;;
1380;SDS011;684;48.342;10.096;2024-01-07T06:34:22;22.07;;;15.50;;
1380;SDS011;684;48.342;10.096;2024-01-07T06:36:49;25.23;;;13.70;;
1380;SDS011;684;48.342;10.096;2024-01-07T06:39:15;22.77;;;15.30;;
1380;SDS011;684;48.342;10.096;2024-01-07T06:41:43;22.27;;;14.33;;
1380;SDS011;684;48.342;10.096;2024-01-07T06:44:10;19.67;;;14.73;;
1380;SDS011;684;48.342;10.096;2024-01-07T06:46:37;21.40;;;14.73;;
1380;SDS011;684;48.342;10.096;2024-01-07T06:49:03;21.37;;;15.47;;
1380;SDS011;684;48.342;10.096;2024-01-07T06:51:30;22.17;;;15.80;;
1380;SDS011;684;48.342;10.096;2024-01-07T06:53:57;24.03;;;15.63;;
1380;SDS011;684;48.342;10.096;2024-01-07T06:56:24;23.80;;;15.40;;
1380;SDS011;684;48.342;10.096;2024-01-07T06:58:52;22.50;;;15.43;;
1380;SDS011;684;48.342;10.096;2024-01-07T07:01:19;22.20;;;15.27;;
1380;SDS011;684;48.342;10.096;2024-01-07T07:03:48;20.73;;;15.03;;
1380;SDS011;684;48.342;10.096;2024-01-07T07:06:14;20.90;;;14.33;;
1380;SDS011;684;48.342;10.096;2024-01-07T07:08:41;20.97;;;15.00;;
1380;SDS011;684;48.342;10.096;2024-01-07T07:11:08;22.40;;;14.50;;
1380;SDS011;684;48.342;10.096;2024-01-07T07:13:35;22.00;;;15.00;;
1380;SDS011;684;48.342;10.096;2024-01-07T07:16:05;23.93;;;15.87;;
1380;SDS011;684;48.342;10.096;2024-01-07T07:18:32;21.90;;;15.40;;
1380;SDS011;684;48.342;10.096;2024-01-07T07:20:59;19.27;;;14.20;;
1380;SDS011;684;48.342;10.096;2024-01-07T07:23:25;22.60;;;15.50;;
1380;SDS011;684;48.342;10.096;2024-01-07T07:25:52;22.43;;;14.77;;
1380;SDS011;684;48.342;10.096;2024-01-07T07:28:19;21.43;;;13.17;;
1380;SDS011;684;48.342;10.096;2024-01-07T07:30:46;18.90;;;13.33;;
1380;SDS011;684;48.342;10.096;2024-01-07T07:33:14;17.03;;;12.37;;
1380;SDS011;684;48.342;10.096;2024-01-07T07:35:40;18.70;;;12.87;;
1380;SDS011;684;48.342;10.096;2024-01-07T07:38:07;18.07;;;12.97;;
1380;SDS011;684;48.342;10.096;2024-01-07T07:40:34;16.13;;;12.20;;
1380;SDS011;684;48.342;10.096;2024-01-07T07:43:01;16.60;;;12.40;;
1380;SDS011;684;48.342;10.096;2024-01-07T07:45:27;15.23;;;11.73;;
1380;SDS011;684;48.342;10.096;2024-01-07T07:47:54;19.57;;;11.77;;
1380;SDS011;684;48.342;10.096;2024-01-07T07:50:22;16.73;;;11.53;;
1380;SDS011;684;48.342;10.096;2024-01-07T07:52:49;17.00;;;12.90;;
1380;SDS011;684;48.342;10.096;2024-01-07T07:55:16;17.43;;;12.47;;
1380;SDS011;684;48.342;10.096;2024-01-07T07:57:43;18.53;;;11.33;;
1380;SDS011;684;48.342;10.096;2024-01-07T08:00:11;17.37;;;12.47;;
1380;SDS011;684;48.342;10.096;2024-01-07T08:02:38;17.17;;;12.23;;
1380;SDS011;684;48.342;10.096;2024-01-07T08:05:06;16.00;;;11.53;;
1380;SDS011;684;48.342;10.096;2024-01-07T08:07:36;14.57;;;11.53;;
1380;SDS011;684;48.342;10.096;2024-01-07T08:10:03;15.00;;;10.40;;
1380;SDS011;684;48.342;10.096;2024-01-07T08:12:30;17.63;;;11.73;;
1380;SDS011;684;48.342;10.096;2024-01-07T08:14:57;14.60;;;10.57;;
1380;SDS011;684;48.342;10.096;2024-01-07T08:17:24;15.60;;;11.00;;
1380;SDS011;684;48.342;10.096;2024-01-07T08:19:50;14.73;;;10.77;;
1380;SDS011;684;48.342;10.096;2024-01-07T08:22:18;14.80;;;9.97;;
1380;SDS011;684;48.342;10.096;2024-01-07T08:24:46;14.17;;;10.87;;
1380;SDS011;684;48.342;10.096;2024-01-07T08:27:12;13.90;;;10.50;;
1380;SDS011;684;48.342;10.096;2024-01-07T08:29:42;14.30;;;10.90;;
1380;SDS011;684;48.342;10.096;2024-01-07T08:32:09;14.57;;;10.17;;
1380;SDS011;684;48.342;10.096;2024-01-07T08:34:37;15.53;;;10.63;;
1380;SDS011;684;48.342;10.096;2024-01-07T08:37:04;16.57;;;11.60;;
1380;SDS011;684;48.342;10.096;2024-01-07T08:39:30;15.93;;;11.30;;
1380;SDS011;684;48.342;10.096;2024-01-07T08:41:58;16.53;;;11.40;;
1380;SDS011;684;48.342;10.096;2024-01-07T08:44:25;17.27;;;10.97;;
1380;SDS011;684;48.342;10.096;2024-01-07T08:46:52;15.33;;;10.60;;
1380;SDS011;684;48.342;10.096;2024-01-07T08:49:19;15.40;;;10.13;;
1380;SDS011;684;48.342;10.096;2024-01-07T08:51:45;13.63;;;9.13;;
1380;SDS011;684;48.342;10.096;2024-01-07T08:54:12;16.00;;;9.87;;
1380;SDS011;684;48.342;10.096;2024-01-07T08:56:39;14.27;;;9.20;;
1380;SDS011;684;48.342;10.096;2024-01-07T08:59:07;13.50;;;8.80;;
1380;SDS011;684;48.342;10.096;2024-01-07T09:01:33;14.30;;;8.50;;
1380;SDS011;684;48.342;10.096;2024-01-07T09:04:00;12.47;;;8.80;;
1380;SDS011;684;48.342;10.096;2024-01-07T09:06:27;14.17;;;9.60;;
1380;SDS011;684;48.342;10.096;2024-01-07T09:08:53;13.77;;;8.33;;
1380;SDS011;684;48.342;10.096;2024-01-07T09:11:20;13.00;;;8.77;;
1380;SDS011;684;48.342;10.096;2024-01-07T09:13:48;14.20;;;9.03;;
1380;SDS011;684;48.342;10.096;2024-01-07T09:16:16;13.80;;;9.40;;
1380;SDS011;684;48.342;10.096;2024-01-07T09:18:43;15.30;;;9.03;;
1380;SDS011;684;48.342;10.096;2024-01-07T09:21:10;16.03;;;9.70;;
1380;SDS011;684;48.342;10.096;2024-01-07T09:23:37;15.60;;;10.90;;
1380;SDS011;684;48.342;10.096;2024-01-07T09:26:04;14.97;;;9.10;;
1380;SDS011;684;48.342;10.096;2024-01-07T09:28:31;15.17;;;9.87;;
1380;SDS011;684;48.342;10.096;2024-01-07T09:30:57;12.83;;;8.27;;
1380;SDS011;684;48.342;10.096;2024-01-07T09:33:25;15.07;;;9.10;;
1380;SDS011;684;48.342;10.096;2024-01-07T09:35:52;13.37;;;8.70;;
1380;SDS011;684;48.342;10.096;2024-01-07T09:38:20;14.40;;;9.10;;
1380;SDS011;684;48.342;10.096;2024-01-07T09:40:46;10.00;;;7.27;;
1380;SDS011;684;48.342;10.096;2024-01-07T09:43:13;12.30;;;7.80;;
1380;SDS011;684;48.342;10.096;2024-01-07T09:45:41;14.57;;;9.10;;
1380;SDS011;684;48.342;10.096;2024-01-07T09:48:11;14.23;;;9.40;;
1380;SDS011;684;48.342;10.096;2024-01-07T09:50:39;15.13;;;9.07;;
1380;SDS011;684;48.342;10.096;2024-01-07T09:53:06;13.90;;;9.30;;
1380;SDS011;684;48.342;10.096;2024-01-07T09:55:37;15.30;;;9.10;;
1380;SDS011;684;48.342;10.096;2024-01-07T09:58:13;14.40;;;9.37;;
1380;SDS011;684;48.342;10.096;2024-01-07T10:00:41;12.60;;;8.40;;
1380;SDS011;684;48.342;10.096;2024-01-07T10:03:08;13.20;;;8.07;;
1380;SDS011;684;48.342;10.096;2024-01-07T10:05:35;13.67;;;8.67;;
1380;SDS011;684;48.342;10.096;2024-01-07T10:08:03;15.63;;;8.93;;
1380;SDS011;684;48.342;10.096;2024-01-07T10:10:31;11.60;;;7.77;;
1380;SDS011;684;48.342;10.096;2024-01-07T10:13:00;12.63;;;7.30;;
1380;SDS011;684;48.342;10.096;2024-01-07T10:15:27;12.00;;;7.40;;
1380;SDS011;684;48.342;10.096;2024-01-07T10:17:54;12.87;;;6.90;;
1380;SDS011;684;48.342;10.096;2024-01-07T10:20:21;10.67;;;7.10;;
1380;SDS011;684;48.342;10.096;2024-01-07T10:22:49;11.97;;;6.70;;
1380;SDS011;684;48.342;10.096;2024-01-07T10:25:18;13.97;;;8.90;;
1380;SDS011;684;48.342;10.096;2024-01-07T10:27:45;11.60;;;7.30;;
1380;SDS011;684;48.342;10.096;2024-01-07T10:30:12;12.33;;;6.90;;
1380;SDS011;684;48.342;10.096;2024-01-07T10:32:41;11.67;;;7.40;;
1380;SDS011;684;48.342;10.096;2024-01-07T10:35:10;10.40;;;6.67;;
1380;SDS011;684;48.342;10.096;2024-01-07T10:37:40;11.33;;;7.00;;
1380;SDS011;684;48.342;10.096;2024-01-07T10:40:08;12.50;;;7.30;;
1380;SDS011;684;48.342;10.096;2024-01-07T10:42:39;11.93;;;7.10;;
1380;SDS011;684;48.342;10.096;2024-01-07T10:45:09;10.97;;;6.37;;
1380;SDS011;684;48.342;10.096;2024-01-07T10:47:36;12.20;;;7.23;;
1380;SDS011;684;48.342;10.096;2024-01-07T10:50:06;11.77;;;7.00;;
1380;SDS011;684;48.342;10.096;2024-01-07T10:52:37;13.67;;;8.10;;
1380;SDS011;684;48.342;10.096;2024-01-07T10:55:08;12.60;;;7.60;;
1380;SDS011;684;48.342;10.096;2024-01-07T10:57:38;10.77;;;7.13;;
1380;SDS011;684;48.342;10.096;2024-01-07T11:00:11;11.50;;;7.63;;
1380;SDS011;684;48.342;10.096;2024-01-07T11:02:46;12.37;;;7.07;;
1380;SDS011;684;48.342;10.096;2024-01-07T11:05:23;12.57;;;7.40;;
1380;SDS011;684;48.342;10.096;2024-01-07T11:07:55;10.83;;;7.33;;
1380;SDS011;684;48.342;10.096;2024-01-07T11:10:31;11.70;;;7.70;;
1380;SDS011;684;48.342;10.096;2024-01-07T11:13:06;12.87;;;7.43;;
1380;SDS011;684;48.342;10.096;2024-01-07T11:15:51;12.73;;;7.80;;
1380;SDS011;684;48.342;10.096;2024-01-07T11:18:19;13.40;;;7.20;;
1380;SDS011;684;48.342;10.096;2024-01-07T11:20:46;12.77;;;7.53;;
1380;SDS011;684;48.342;10.096;2024-01-07T11:23:25;11.80;;;7.17;;
1380;SDS011;684;48.342;10.096;2024-01-07T11:25:54;13.93;;;7.77;;
1380;SDS011;684;48.342;10.096;2024-01-07T11:31:16;13.57;;;8.60;;
1380;SDS011;684;48.342;10.096;2024-01-07T11:33:45;13.93;;;8.93;;
1380;SDS011;684;48.342;10.096;2024-01-07T11:36:12;12.90;;;8.60;;
1380;SDS011;684;48.342;10.096;2024-01-07T11:38:42;16.73;;;8.60;;
1380;SDS011;684;48.342;10.096;2024-01-07T11:41:11;12.80;;;7.60;;
1380;SDS011;684;48.342;10.096;2024-01-07T11:43:52;14.63;;;8.70;;
1380;SDS011;684;48.342;10.096;2024-01-07T11:46:20;14.33;;;8.80;;
1380;SDS011;684;48.342;10.096;2024-01-07T11:48:47;14.97;;;8.73;;
1380;SDS011;684;48.342;10.096;2024-01-07T11:51:14;12.67;;;8.37;;
1380;SDS011;684;48.342;10.096;2024-01-07T11:53:42;13.20;;;8.53;;
1380;SDS011;684;48.342;10.096;2024-01-07T11:56:12;13.47;;;8.60;;
1380;SDS011;684;48.342;10.096;2024-01-07T11:58:39;14.00;;;8.97;;
1380;SDS011;684;48.342;10.096;2024-01-07T12:01:07;12.53;;;7.73;;
1380;SDS011;684;48.342;10.096;2024-01-07T12:03:34;13.20;;;8.23;;
1380;SDS011;684;48.342;10.096;2024-01-07T12:06:01;13.73;;;8.67;;
1380;SDS011;684;48.342;10.096;2024-01-07T12:08:28;13.83;;;8.83;;
1380;SDS011;684;48.342;10.096;2024-01-07T12:10:56;14.27;;;9.23;;
1380;SDS011;684;48.342;10.096;2024-01-07T12:13:23;16.10;;;9.20;;
1380;SDS011;684;48.342;10.096;2024-01-07T12:15:50;14.70;;;9.43;;
1380;SDS011;684;48.342;10.096;2024-01-07T12:18:19;14.33;;;8.30;;
1380;SDS011;684;48.342;10.096;2024-01-07T12:20:54;14.87;;;9.00;;
1380;SDS011;684;48.342;10.096;2024-01-07T12:23:21;13.57;;;8.40;;
1380;SDS011;684;48.342;10.096;2024-01-07T12:25:48;15.57;;;9.53;;
1380;SDS011;684;48.342;10.096;2024-01-07T12:28:16;14.33;;;9.10;;
1380;SDS011;684;48.342;10.096;2024-01-07T12:30:43;12.67;;;8.30;;
1380;SDS011;684;48.342;10.096;2024-01-07T12:33:10;15.00;;;10.23;;
1380;SDS011;684;48.342;10.096;2024-01-07T12:35:38;14.60;;;9.40;;
1380;SDS011;684;48.342;10.096;2024-01-07T12:38:05;16.50;;;9.73;;
1380;SDS011;684;48.342;10.096;2024-01-07T12:40:31;12.33;;;8.33;;
1380;SDS011;684;48.342;10.096;2024-01-07T12:42:59;14.40;;;8.50;;
1380;SDS011;684;48.342;10.096;2024-01-07T12:45:27;14.33;;;8.53;;
1380;SDS011;684;48.342;10.096;2024-01-07T12:47:54;16.90;;;10.20;;
1380;SDS011;684;48.342;10.096;2024-01-07T12:50:23;18.67;;;11.07;;
1380;SDS011;684;48.342;10.096;2024-01-07T12:55:19;13.57;;;8.67;;
1380;SDS011;684;48.342;10.096;2024-01-07T12:57:46;17.20;;;10.40;;
1380;SDS011;684;48.342;10.096;2024-01-07T13:00:13;18.33;;;11.77;;
1380;SDS011;684;48.342;10.096;2024-01-07T13:02:41;16.03;;;10.50;;
1380;SDS011;684;48.342;10.096;2024-01-07T13:05:08;16.57;;;10.60;;
1380;SDS011;684;48.342;10.096;2024-01-07T13:07:35;17.70;;;11.20;;
1380;SDS011;684;48.342;10.096;2024-01-07T13:10:01;18.40;;;11.67;;
1380;SDS011;684;48.342;10.096;2024-01-07T13:12:29;21.50;;;13.70;;
1380;SDS011;684;48.342;10.096;2024-01-07T13:14:56;16.90;;;11.03;;
1380;SDS011;684;48.342;10.096;2024-01-07T13:17:23;17.77;;;10.80;;
1380;SDS011;684;48.342;10.096;2024-01-07T13:19:49;19.60;;;12.93;;
1380;SDS011;684;48.342;10.096;2024-01-07T13:22:17;17.40;;;10.33;;
1380;SDS011;684;48.342;10.096;2024-01-07T13:24:44;16.37;;;10.50;;
1380;SDS011;684;48.342;10.096;2024-01-07T13:27:10;17.97;;;11.70;;
1380;SDS011;684;48.342;10.096;2024-01-07T13:29:39;18.30;;;11.63;;
1380;SDS011;684;48.342;10.096;2024-01-07T13:32:06;18.43;;;11.40;;
1380;SDS011;684;48.342;10.096;2024-01-07T13:34:33;19.30;;;12.90;;
1380;SDS011;684;48.342;10.096;2024-01-07T13:37:00;18.97;;;11.50;;
1380;SDS011;684;48.342;10.096;2024-01-07T13:39:28;16.30;;;11.63;;
1380;SDS011;684;48.342;10.096;2024-01-07T13:41:55;19.13;;;11.23;;
1380;SDS011;684;48.342;10.096;2024-01-07T13:44:22;19.27;;;11.70;;
1380;SDS011;684;48.342;10.096;2024-01-07T13:46:50;18.30;;;12.57;;
1380;SDS011;684;48.342;10.096;2024-01-07T13:49:18;15.27;;;10.10;;
1380;SDS011;684;48.342;10.096;2024-01-07T13:51:45;17.50;;;10.60;;
1380;SDS011;684;48.342;10.096;2024-01-07T13:54:12;15.50;;;10.40;;
1380;SDS011;684;48.342;10.096;2024-01-07T13:56:39;19.10;;;12.27;;
1380;SDS011;684;48.342;10.096;2024-01-07T13:59:07;16.93;;;10.43;;
1380;SDS011;684;48.342;10.096;2024-01-07T14:01:34;16.57;;;11.17;;
1380;SDS011;684;48.342;10.096;2024-01-07T14:04:03;15.63;;;9.63;;
1380;SDS011;684;48.342;10.096;2024-01-07T14:06:29;14.23;;;9.57;;
1380;SDS011;684;48.342;10.096;2024-01-07T14:08:56;18.80;;;10.90;;
1380;SDS011;684;48.342;10.096;2024-01-07T14:11:23;15.73;;;9.87;;
1380;SDS011;684;48.342;10.096;2024-01-07T14:13:51;14.30;;;9.60;;
1380;SDS011;684;48.342;10.096;2024-01-07T14:16:18;16.67;;;9.80;;
1380;SDS011;684;48.342;10.096;2024-01-07T14:18:45;15.50;;;9.53;;
1380;SDS011;684;48.342;10.096;2024-01-07T14:21:13;16.50;;;10.03;;
1380;SDS011;684;48.342;10.096;2024-01-07T14:23:40;15.17;;;8.50;;
1380;SDS011;684;48.342;10.096;2024-01-07T14:26:06;14.40;;;8.90;;
1380;SDS011;684;48.342;10.096;2024-01-07T14:28:33;14.53;;;9.53;;
1380;SDS011;684;48.342;10.096;2024-01-07T14:31:00;16.10;;;9.80;;
1380;SDS011;684;48.342;10.096;2024-01-07T14:33:28;15.57;;;10.73;;
1380;SDS011;684;48.342;10.096;2024-01-07T14:35:55;17.60;;;11.67;;
1380;SDS011;684;48.342;10.096;2024-01-07T14:38:23;15.60;;;9.70;;
1380;SDS011;684;48.342;10.096;2024-01-07T14:40:50;15.80;;;10.40;;
1380;SDS011;684;48.342;10.096;2024-01-07T14:43:17;17.40;;;11.60;;
1380;SDS011;684;48.342;10.096;2024-01-07T14:45:44;18.77;;;11.10;;
1380;SDS011;684;48.342;10.096;2024-01-07T14:48:11;16.13;;;9.77;;
1380;SDS011;684;48.342;10.096;2024-01-07T14:50:36;16.80;;;10.97;;
1380;SDS011;684;48.342;10.096;2024-01-07T14:53:03;18.23;;;11.70;;
1380;SDS011;684;48.342;10.096;2024-01-07T14:55:31;16.63;;;10.53;;
1380;SDS011;684;48.342;10.096;2024-01-07T14:57:58;18.17;;;10.90;;
1380;SDS011;684;48.342;10.096;2024-01-07T15:00:25;18.80;;;12.33;;